sensor_id;sensor_type;location;lat;lon;timestamp;P1;durP1;ratioP1;P2;durP2;ratioP2
20653;SDS011;21083;50.898;4.902;2024-03-07T00:01:00;66.88;;;32.63;;
20653;SDS011;21083;50.898;4.902;2024-03-07T00:03:31;68.50;;;32.03;;
20653;SDS011;21083;50.898;4.902;2024-03-07T00:06:00;62.13;;;31.90;;
20653;SDS011;21083;50.898;4.902;2024-03-07T00:08:29;59.78;;;30.35;;
20653;SDS011;21083;50.898;4.902;2024-03-07T00:10:57;65.65;;;33.13;;
20653;SDS011;21083;50.898;4.902;2024-03-07T00:13:27;68.78;;;32.63;;
20653;SDS011;21083;50.898;4.902;2024-03-07T00:15:56;65.00;;;33.42;;
20653;SDS011;21083;50.898;4.902;2024-03-07T00:18:24;66.38;;;32.00;;
20653;SDS011;21083;50.898;4.902;2024-03-07T00:20:57;63.78;;;31.70;;
20653;SDS011;21083;50.898;4.902;2024-03-07T00:23:26;63.97;;;31.85;;
20653;SDS011;21083;50.898;4.902;2024-03-07T00:25:54;69.57;;;30.52;;
20653;SDS011;21083;50.898;4.902;2024-03-07T00:28:24;69.32;;;31.80;;
20653;SDS011;21083;50.898;4.902;2024-03-07T00:31:00;58.95;;;29.67;;
20653;SDS011;21083;50.898;4.902;2024-03-07T00:33:32;62.72;;;30.85;;
20653;SDS011;21083;50.898;4.902;2024-03-07T00:36:02;56.78;;;28.90;;
20653;SDS011;21083;50.898;4.902;2024-03-07T00:38:37;67.10;;;31.70;;
20653;SDS011;21083;50.898;4.902;2024-03-07T00:41:06;67.53;;;32.45;;
20653;SDS011;21083;50.898;4.902;2024-03-07T00:43:35;63.35;;;30.52;;
20653;SDS011;21083;50.898;4.902;2024-03-07T00:46:04;66.10;;;32.00;;
20653;SDS011;21083;50.898;4.902;2024-03-07T00:48:37;69.50;;;31.67;;
20653;SDS011;21083;50.898;4.902;2024-03-07T00:51:06;66.20;;;31.67;;
20653;SDS011;21083;50.898;4.902;2024-03-07T00:53:36;66.85;;;31.42;;
20653;SDS011;21083;50.898;4.902;2024-03-07T00:56:03;67.45;;;33.10;;
20653;SDS011;21083;50.898;4.902;2024-03-07T00:58:30;73.20;;;32.60;;
20653;SDS011;21083;50.898;4.902;2024-03-07T01:00:57;66.80;;;31.95;;
20653;SDS011;21083;50.898;4.902;2024-03-07T01:03:25;68.20;;;33.10;;
20653;SDS011;21083;50.898;4.902;2024-03-07T01:05:52;68.68;;;33.00;;
20653;SDS011;21083;50.898;4.902;2024-03-07T01:08:21;72.55;;;33.83;;
20653;SDS011;21083;50.898;4.902;2024-03-07T01:10:58;67.40;;;32.00;;
20653;SDS011;21083;50.898;4.902;2024-03-07T01:13:27;66.90;;;32.75;;
20653;SDS011;21083;50.898;4.902;2024-03-07T01:15:56;73.20;;;32.78;;
20653;SDS011;21083;50.898;4.902;2024-03-07T01:18:30;69.32;;;33.63;;
20653;SDS011;21083;50.898;4.902;2024-03-07T01:21:00;70.57;;;34.42;;
20653;SDS011;21083;50.898;4.902;2024-03-07T01:23:33;80.20;;;36.13;;
20653;SDS011;21083;50.898;4.902;2024-03-07T01:26:01;70.38;;;33.58;;
20653;SDS011;21083;50.898;4.902;2024-03-07T01:28:30;71.65;;;35.45;;
20653;SDS011;21083;50.898;4.902;2024-03-07T01:30:59;73.65;;;34.65;;
20653;SDS011;21083;50.898;4.902;2024-03-07T01:33:28;74.18;;;34.40;;
20653;SDS011;21083;50.898;4.902;2024-03-07T01:35:56;67.93;;;34.00;;
20653;SDS011;21083;50.898;4.902;2024-03-07T01:38:24;70.97;;;34.90;;
20653;SDS011;21083;50.898;4.902;2024-03-07T01:40:54;72.55;;;34.75;;
20653;SDS011;21083;50.898;4.902;2024-03-07T01:43:22;69.40;;;32.75;;
20653;SDS011;21083;50.898;4.902;2024-03-07T01:45:49;65.05;;;32.58;;
20653;SDS011;21083;50.898;4.902;2024-03-07T01:48:25;71.65;;;34.80;;
20653;SDS011;21083;50.898;4.902;2024-03-07T01:50:53;71.32;;;34.63;;
20653;SDS011;21083;50.898;4.902;2024-03-07T01:53:22;79.43;;;35.83;;
20653;SDS011;21083;50.898;4.902;2024-03-07T01:55:49;67.68;;;32.47;;
20653;SDS011;21083;50.898;4.902;2024-03-07T01:58:20;62.95;;;31.52;;
20653;SDS011;21083;50.898;4.902;2024-03-07T02:00:47;68.32;;;32.58;;
20653;SDS011;21083;50.898;4.902;2024-03-07T02:03:14;75.03;;;35.20;;
20653;SDS011;21083;50.898;4.902;2024-03-07T02:05:42;72.70;;;35.33;;
20653;SDS011;21083;50.898;4.902;2024-03-07T02:08:10;70.00;;;34.00;;
20653;SDS011;21083;50.898;4.902;2024-03-07T02:10:37;72.38;;;35.60;;
20653;SDS011;21083;50.898;4.902;2024-03-07T02:13:04;78.53;;;35.08;;
20653;SDS011;21083;50.898;4.902;2024-03-07T02:15:33;70.95;;;34.38;;
20653;SDS011;21083;50.898;4.902;2024-03-07T02:18:00;68.55;;;32.97;;
20653;SDS011;21083;50.898;4.902;2024-03-07T02:20:27;76.47;;;33.60;;
20653;SDS011;21083;50.898;4.902;2024-03-07T02:22:56;68.22;;;33.72;;
20653;SDS011;21083;50.898;4.902;2024-03-07T02:25:23;74.97;;;33.30;;
20653;SDS011;21083;50.898;4.902;2024-03-07T02:27:50;75.80;;;34.53;;
20653;SDS011;21083;50.898;4.902;2024-03-07T02:30:17;72.50;;;34.58;;
20653;SDS011;21083;50.898;4.902;2024-03-07T02:32:45;70.70;;;34.15;;
20653;SDS011;21083;50.898;4.902;2024-03-07T02:35:18;72.07;;;33.45;;
20653;SDS011;21083;50.898;4.902;2024-03-07T02:37:45;77.45;;;35.90;;
20653;SDS011;21083;50.898;4.902;2024-03-07T02:40:14;77.38;;;37.25;;
20653;SDS011;21083;50.898;4.902;2024-03-07T02:42:41;79.35;;;34.88;;
20653;SDS011;21083;50.898;4.902;2024-03-07T02:45:09;77.45;;;35.75;;
20653;SDS011;21083;50.898;4.902;2024-03-07T02:47:39;73.28;;;35.28;;
20653;SDS011;21083;50.898;4.902;2024-03-07T02:50:09;72.70;;;35.33;;
20653;SDS011;21083;50.898;4.902;2024-03-07T02:52:37;76.15;;;35.38;;
20653;SDS011;21083;50.898;4.902;2024-03-07T02:55:04;93.38;;;37.50;;
20653;SDS011;21083;50.898;4.902;2024-03-07T02:57:36;77.28;;;35.13;;
20653;SDS011;21083;50.898;4.902;2024-03-07T03:00:04;74.28;;;36.08;;
20653;SDS011;21083;50.898;4.902;2024-03-07T03:02:45;78.30;;;36.00;;
20653;SDS011;21083;50.898;4.902;2024-03-07T03:05:13;72.82;;;34.65;;
20653;SDS011;21083;50.898;4.902;2024-03-07T03:07:40;78.93;;;36.08;;
20653;SDS011;21083;50.898;4.902;2024-03-07T03:10:18;74.43;;;33.65;;
20653;SDS011;21083;50.898;4.902;2024-03-07T03:12:47;78.45;;;36.63;;
20653;SDS011;21083;50.898;4.902;2024-03-07T03:15:14;78.78;;;35.75;;
20653;SDS011;21083;50.898;4.902;2024-03-07T03:17:45;80.68;;;37.03;;
20653;SDS011;21083;50.898;4.902;2024-03-07T03:20:13;79.10;;;36.08;;
20653;SDS011;21083;50.898;4.902;2024-03-07T03:22:49;87.05;;;38.83;;
20653;SDS011;21083;50.898;4.902;2024-03-07T03:25:17;77.80;;;36.40;;
20653;SDS011;21083;50.898;4.902;2024-03-07T03:27:47;77.65;;;34.75;;
20653;SDS011;21083;50.898;4.902;2024-03-07T03:30:14;79.25;;;36.40;;
20653;SDS011;21083;50.898;4.902;2024-03-07T03:32:44;77.97;;;37.22;;
20653;SDS011;21083;50.898;4.902;2024-03-07T03:35:12;87.53;;;38.55;;
20653;SDS011;21083;50.898;4.902;2024-03-07T03:37:40;87.40;;;37.05;;
20653;SDS011;21083;50.898;4.902;2024-03-07T03:40:08;82.47;;;37.45;;
20653;SDS011;21083;50.898;4.902;2024-03-07T03:42:37;79.90;;;38.80;;
20653;SDS011;21083;50.898;4.902;2024-03-07T03:45:06;83.07;;;35.97;;
20653;SDS011;21083;50.898;4.902;2024-03-07T03:47:34;73.70;;;35.15;;
20653;SDS011;21083;50.898;4.902;2024-03-07T03:50:03;78.15;;;34.60;;
20653;SDS011;21083;50.898;4.902;2024-03-07T03:52:31;76.10;;;36.25;;
20653;SDS011;21083;50.898;4.902;2024-03-07T03:54:58;78.38;;;34.42;;
20653;SDS011;21083;50.898;4.902;2024-03-07T03:57:25;76.85;;;35.33;;
20653;SDS011;21083;50.898;4.902;2024-03-07T03:59:54;78.97;;;35.72;;
20653;SDS011;21083;50.898;4.902;2024-03-07T04:02:23;82.80;;;37.10;;
20653;SDS011;21083;50.898;4.902;2024-03-07T04:04:50;76.75;;;36.42;;
20653;SDS011;21083;50.898;4.902;2024-03-07T04:07:19;81.75;;;37.20;;
20653;SDS011;21083;50.898;4.902;2024-03-07T04:09:46;90.35;;;36.97;;
20653;SDS011;21083;50.898;4.902;2024-03-07T04:12:13;80.85;;;36.95;;
20653;SDS011;21083;50.898;4.902;2024-03-07T04:14:40;82.68;;;36.72;;
20653;SDS011;21083;50.898;4.902;2024-03-07T04:17:08;76.85;;;34.20;;
20653;SDS011;21083;50.898;4.902;2024-03-07T04:19:38;82.13;;;35.35;;
20653;SDS011;21083;50.898;4.902;2024-03-07T04:22:06;82.93;;;36.17;;
20653;SDS011;21083;50.898;4.902;2024-03-07T04:24:34;81.00;;;36.90;;
20653;SDS011;21083;50.898;4.902;2024-03-07T04:27:01;77.15;;;33.83;;
20653;SDS011;21083;50.898;4.902;2024-03-07T04:29:30;82.25;;;35.60;;
20653;SDS011;21083;50.898;4.902;2024-03-07T04:31:57;80.57;;;36.38;;
20653;SDS011;21083;50.898;4.902;2024-03-07T04:34:24;78.82;;;35.45;;
20653;SDS011;21083;50.898;4.902;2024-03-07T04:36:53;80.68;;;34.55;;
20653;SDS011;21083;50.898;4.902;2024-03-07T04:39:21;76.45;;;34.75;;
20653;SDS011;21083;50.898;4.902;2024-03-07T04:41:55;87.65;;;36.72;;
20653;SDS011;21083;50.898;4.902;2024-03-07T04:44:22;86.75;;;37.22;;
20653;SDS011;21083;50.898;4.902;2024-03-07T04:46:50;89.50;;;39.55;;
20653;SDS011;21083;50.898;4.902;2024-03-07T04:49:20;82.15;;;38.25;;
20653;SDS011;21083;50.898;4.902;2024-03-07T04:51:49;78.13;;;35.80;;
20653;SDS011;21083;50.898;4.902;2024-03-07T04:54:18;85.90;;;37.35;;
20653;SDS011;21083;50.898;4.902;2024-03-07T04:56:46;91.70;;;36.92;;
20653;SDS011;21083;50.898;4.902;2024-03-07T04:59:13;79.20;;;36.03;;
20653;SDS011;21083;50.898;4.902;2024-03-07T05:01:41;86.13;;;36.58;;
20653;SDS011;21083;50.898;4.902;2024-03-07T05:04:08;85.75;;;36.80;;
20653;SDS011;21083;50.898;4.902;2024-03-07T05:06:37;86.88;;;37.83;;
20653;SDS011;21083;50.898;4.902;2024-03-07T05:09:05;81.20;;;35.20;;
20653;SDS011;21083;50.898;4.902;2024-03-07T05:11:36;88.22;;;37.55;;
20653;SDS011;21083;50.898;4.902;2024-03-07T05:14:08;82.32;;;36.85;;
20653;SDS011;21083;50.898;4.902;2024-03-07T05:16:36;87.35;;;35.78;;
20653;SDS011;21083;50.898;4.902;2024-03-07T05:19:09;79.60;;;36.03;;
20653;SDS011;21083;50.898;4.902;2024-03-07T05:21:38;85.38;;;37.35;;
20653;SDS011;21083;50.898;4.902;2024-03-07T05:24:07;86.80;;;37.10;;
20653;SDS011;21083;50.898;4.902;2024-03-07T05:29:25;96.88;;;37.28;;
20653;SDS011;21083;50.898;4.902;2024-03-07T05:31:52;93.43;;;39.65;;
20653;SDS011;21083;50.898;4.902;2024-03-07T05:34:19;86.25;;;35.92;;
20653;SDS011;21083;50.898;4.902;2024-03-07T05:36:48;93.75;;;36.72;;
20653;SDS011;21083;50.898;4.902;2024-03-07T05:39:15;90.65;;;39.40;;
20653;SDS011;21083;50.898;4.902;2024-03-07T05:41:43;91.63;;;37.75;;
20653;SDS011;21083;50.898;4.902;2024-03-07T05:44:12;100.60;;;40.13;;
20653;SDS011;21083;50.898;4.902;2024-03-07T05:46:40;132.88;;;41.53;;
20653;SDS011;21083;50.898;4.902;2024-03-07T05:49:11;161.20;;;41.75;;
20653;SDS011;21083;50.898;4.902;2024-03-07T05:51:39;215.35;;;45.50;;
20653;SDS011;21083;50.898;4.902;2024-03-07T05:54:10;183.77;;;39.88;;
20653;SDS011;21083;50.898;4.902;2024-03-07T05:56:38;220.10;;;44.85;;
20653;SDS011;21083;50.898;4.902;2024-03-07T05:59:06;198.00;;;39.95;;
20653;SDS011;21083;50.898;4.902;2024-03-07T06:01:36;193.02;;;42.28;;
20653;SDS011;21083;50.898;4.902;2024-03-07T06:04:03;122.10;;;39.60;;
20653;SDS011;21083;50.898;4.902;2024-03-07T06:06:31;282.25;;;48.10;;
20653;SDS011;21083;50.898;4.902;2024-03-07T06:08:59;131.55;;;41.60;;
20653;SDS011;21083;50.898;4.902;2024-03-07T06:11:28;200.73;;;42.83;;
20653;SDS011;21083;50.898;4.902;2024-03-07T06:13:55;208.75;;;42.97;;
20653;SDS011;21083;50.898;4.902;2024-03-07T06:16:23;136.70;;;39.38;;
20653;SDS011;21083;50.898;4.902;2024-03-07T06:18:51;290.88;;;46.45;;
20653;SDS011;21083;50.898;4.902;2024-03-07T06:21:19;156.05;;;40.60;;
20653;SDS011;21083;50.898;4.902;2024-03-07T06:23:46;228.77;;;44.42;;
20653;SDS011;21083;50.898;4.902;2024-03-07T06:26:18;267.48;;;47.30;;
20653;SDS011;21083;50.898;4.902;2024-03-07T06:29:02;249.05;;;44.42;;
20653;SDS011;21083;50.898;4.902;2024-03-07T06:31:30;166.60;;;41.00;;
20653;SDS011;21083;50.898;4.902;2024-03-07T06:33:58;237.98;;;45.40;;
20653;SDS011;21083;50.898;4.902;2024-03-07T06:36:25;252.10;;;44.80;;
20653;SDS011;21083;50.898;4.902;2024-03-07T06:38:53;180.20;;;41.42;;
20653;SDS011;21083;50.898;4.902;2024-03-07T06:41:20;190.73;;;41.80;;
20653;SDS011;21083;50.898;4.902;2024-03-07T06:43:47;118.15;;;39.55;;
20653;SDS011;21083;50.898;4.902;2024-03-07T06:46:15;125.43;;;36.88;;
20653;SDS011;21083;50.898;4.902;2024-03-07T06:48:42;166.95;;;38.90;;
20653;SDS011;21083;50.898;4.902;2024-03-07T06:51:11;118.75;;;36.03;;
20653;SDS011;21083;50.898;4.902;2024-03-07T06:53:38;204.55;;;40.47;;
20653;SDS011;21083;50.898;4.902;2024-03-07T06:56:05;143.90;;;36.55;;
20653;SDS011;21083;50.898;4.902;2024-03-07T06:58:32;137.93;;;37.80;;
20653;SDS011;21083;50.898;4.902;2024-03-07T07:00:59;195.65;;;41.38;;
20653;SDS011;21083;50.898;4.902;2024-03-07T07:03:32;173.93;;;40.28;;
20653;SDS011;21083;50.898;4.902;2024-03-07T07:06:00;181.68;;;36.67;;
20653;SDS011;21083;50.898;4.902;2024-03-07T07:08:29;151.95;;;39.78;;
20653;SDS011;21083;50.898;4.902;2024-03-07T07:10:56;135.98;;;37.05;;
20653;SDS011;21083;50.898;4.902;2024-03-07T07:13:23;161.77;;;38.55;;
20653;SDS011;21083;50.898;4.902;2024-03-07T07:15:51;178.65;;;41.35;;
20653;SDS011;21083;50.898;4.902;2024-03-07T07:18:19;174.52;;;40.63;;
20653;SDS011;21083;50.898;4.902;2024-03-07T07:20:46;126.22;;;41.17;;
20653;SDS011;21083;50.898;4.902;2024-03-07T07:23:14;122.20;;;39.38;;
20653;SDS011;21083;50.898;4.902;2024-03-07T07:25:42;123.43;;;40.78;;
20653;SDS011;21083;50.898;4.902;2024-03-07T07:28:09;121.93;;;38.40;;
20653;SDS011;21083;50.898;4.902;2024-03-07T07:30:37;136.23;;;43.80;;
20653;SDS011;21083;50.898;4.902;2024-03-07T07:33:04;107.68;;;39.80;;
20653;SDS011;21083;50.898;4.902;2024-03-07T07:35:31;108.70;;;41.55;;
20653;SDS011;21083;50.898;4.902;2024-03-07T07:37:59;118.68;;;40.92;;
20653;SDS011;21083;50.898;4.902;2024-03-07T07:40:26;119.03;;;42.42;;
20653;SDS011;21083;50.898;4.902;2024-03-07T07:42:57;123.55;;;42.40;;
20653;SDS011;21083;50.898;4.902;2024-03-07T07:45:26;115.72;;;42.47;;
20653;SDS011;21083;50.898;4.902;2024-03-07T07:47:53;138.15;;;42.47;;
20653;SDS011;21083;50.898;4.902;2024-03-07T07:50:21;118.32;;;41.72;;
20653;SDS011;21083;50.898;4.902;2024-03-07T07:52:49;122.32;;;43.72;;
20653;SDS011;21083;50.898;4.902;2024-03-07T07:55:18;126.78;;;45.40;;
20653;SDS011;21083;50.898;4.902;2024-03-07T07:57:47;123.90;;;44.45;;
20653;SDS011;21083;50.898;4.902;2024-03-07T08:00:19;129.00;;;42.67;;
20653;SDS011;21083;50.898;4.902;2024-03-07T08:02:50;116.93;;;41.50;;
20653;SDS011;21083;50.898;4.902;2024-03-07T08:05:18;114.57;;;42.80;;
20653;SDS011;21083;50.898;4.902;2024-03-07T08:07:48;114.18;;;44.92;;
20653;SDS011;21083;50.898;4.902;2024-03-07T08:10:16;117.72;;;43.55;;
20653;SDS011;21083;50.898;4.902;2024-03-07T08:12:44;116.90;;;43.83;;
20653;SDS011;21083;50.898;4.902;2024-03-07T08:15:11;104.28;;;43.47;;
20653;SDS011;21083;50.898;4.902;2024-03-07T08:17:42;110.10;;;44.40;;
20653;SDS011;21083;50.898;4.902;2024-03-07T08:20:10;100.32;;;41.90;;
20653;SDS011;21083;50.898;4.902;2024-03-07T08:22:38;110.30;;;44.45;;
20653;SDS011;21083;50.898;4.902;2024-03-07T08:25:07;104.65;;;42.72;;
20653;SDS011;21083;50.898;4.902;2024-03-07T08:27:35;106.55;;;43.83;;
20653;SDS011;21083;50.898;4.902;2024-03-07T08:30:04;105.28;;;43.30;;
20653;SDS011;21083;50.898;4.902;2024-03-07T08:32:33;107.30;;;41.97;;
20653;SDS011;21083;50.898;4.902;2024-03-07T08:35:03;104.28;;;42.45;;
20653;SDS011;21083;50.898;4.902;2024-03-07T08:37:33;105.15;;;43.33;;
20653;SDS011;21083;50.898;4.902;2024-03-07T08:40:01;100.35;;;41.92;;
20653;SDS011;21083;50.898;4.902;2024-03-07T08:42:31;96.80;;;41.92;;
20653;SDS011;21083;50.898;4.902;2024-03-07T08:44:59;98.38;;;41.58;;
20653;SDS011;21083;50.898;4.902;2024-03-07T08:47:26;101.82;;;42.05;;
20653;SDS011;21083;50.898;4.902;2024-03-07T08:49:55;108.80;;;42.72;;
20653;SDS011;21083;50.898;4.902;2024-03-07T08:52:24;91.07;;;40.45;;
20653;SDS011;21083;50.898;4.902;2024-03-07T08:54:51;90.38;;;38.95;;
20653;SDS011;21083;50.898;4.902;2024-03-07T08:57:19;92.00;;;40.53;;
20653;SDS011;21083;50.898;4.902;2024-03-07T08:59:47;83.80;;;37.60;;
20653;SDS011;21083;50.898;4.902;2024-03-07T09:02:14;86.40;;;37.80;;
20653;SDS011;21083;50.898;4.902;2024-03-07T09:04:41;86.95;;;39.00;;
20653;SDS011;21083;50.898;4.902;2024-03-07T09:07:08;75.10;;;35.55;;
20653;SDS011;21083;50.898;4.902;2024-03-07T09:09:36;76.07;;;36.22;;
20653;SDS011;21083;50.898;4.902;2024-03-07T09:12:04;72.88;;;36.45;;
20653;SDS011;21083;50.898;4.902;2024-03-07T09:14:31;70.50;;;34.65;;
20653;SDS011;21083;50.898;4.902;2024-03-07T09:16:58;71.05;;;34.78;;
20653;SDS011;21083;50.898;4.902;2024-03-07T09:19:25;73.75;;;35.28;;
20653;SDS011;21083;50.898;4.902;2024-03-07T09:21:53;71.82;;;35.15;;
20653;SDS011;21083;50.898;4.902;2024-03-07T09:24:20;83.50;;;39.67;;
20653;SDS011;21083;50.898;4.902;2024-03-07T09:26:49;84.10;;;40.65;;
20653;SDS011;21083;50.898;4.902;2024-03-07T09:29:22;103.95;;;54.17;;
20653;SDS011;21083;50.898;4.902;2024-03-07T09:31:49;61.67;;;30.95;;
20653;SDS011;21083;50.898;4.902;2024-03-07T09:34:18;66.90;;;32.50;;
20653;SDS011;21083;50.898;4.902;2024-03-07T09:36:46;67.40;;;32.22;;
20653;SDS011;21083;50.898;4.902;2024-03-07T09:39:14;65.85;;;32.45;;
20653;SDS011;21083;50.898;4.902;2024-03-07T09:41:41;68.40;;;35.80;;
20653;SDS011;21083;50.898;4.902;2024-03-07T09:44:10;65.95;;;33.22;;
20653;SDS011;21083;50.898;4.902;2024-03-07T09:46:46;66.85;;;33.78;;
20653;SDS011;21083;50.898;4.902;2024-03-07T09:49:14;64.28;;;32.22;;
20653;SDS011;21083;50.898;4.902;2024-03-07T09:51:42;59.97;;;32.70;;
20653;SDS011;21083;50.898;4.902;2024-03-07T09:54:09;59.78;;;29.83;;
20653;SDS011;21083;50.898;4.902;2024-03-07T09:56:37;63.28;;;32.20;;
20653;SDS011;21083;50.898;4.902;2024-03-07T09:59:05;62.90;;;30.98;;
20653;SDS011;21083;50.898;4.902;2024-03-07T10:01:38;56.72;;;29.90;;
20653;SDS011;21083;50.898;4.902;2024-03-07T10:04:08;61.67;;;31.10;;
20653;SDS011;21083;50.898;4.902;2024-03-07T10:06:39;57.17;;;29.13;;
20653;SDS011;21083;50.898;4.902;2024-03-07T10:09:07;57.50;;;31.40;;
20653;SDS011;21083;50.898;4.902;2024-03-07T10:11:34;57.33;;;30.30;;
20653;SDS011;21083;50.898;4.902;2024-03-07T10:14:01;57.50;;;30.20;;
20653;SDS011;21083;50.898;4.902;2024-03-07T10:16:31;54.33;;;30.17;;
20653;SDS011;21083;50.898;4.902;2024-03-07T10:18:58;51.85;;;28.17;;
20653;SDS011;21083;50.898;4.902;2024-03-07T10:21:26;54.97;;;29.10;;
20653;SDS011;21083;50.898;4.902;2024-03-07T10:24:03;55.38;;;29.00;;
20653;SDS011;21083;50.898;4.902;2024-03-07T10:26:32;55.70;;;30.48;;
20653;SDS011;21083;50.898;4.902;2024-03-07T10:29:02;57.47;;;29.48;;
20653;SDS011;21083;50.898;4.902;2024-03-07T10:31:31;50.15;;;28.38;;
20653;SDS011;21083;50.898;4.902;2024-03-07T10:33:59;55.20;;;28.83;;
20653;SDS011;21083;50.898;4.902;2024-03-07T10:36:27;47.35;;;26.55;;
20653;SDS011;21083;50.898;4.902;2024-03-07T10:38:56;54.20;;;29.20;;
20653;SDS011;21083;50.898;4.902;2024-03-07T10:41:37;52.25;;;27.73;;
20653;SDS011;21083;50.898;4.902;2024-03-07T10:44:11;53.97;;;30.67;;
20653;SDS011;21083;50.898;4.902;2024-03-07T10:46:48;55.53;;;29.83;;
20653;SDS011;21083;50.898;4.902;2024-03-07T10:49:19;60.25;;;29.50;;
20653;SDS011;21083;50.898;4.902;2024-03-07T10:51:51;53.30;;;28.35;;
20653;SDS011;21083;50.898;4.902;2024-03-07T10:54:28;50.92;;;27.60;;
20653;SDS011;21083;50.898;4.902;2024-03-07T10:57:05;47.55;;;27.30;;
20653;SDS011;21083;50.898;4.902;2024-03-07T10:59:42;49.92;;;27.73;;
20653;SDS011;21083;50.898;4.902;2024-03-07T11:02:19;48.45;;;27.05;;
20653;SDS011;21083;50.898;4.902;2024-03-07T11:04:54;48.78;;;27.30;;
20653;SDS011;21083;50.898;4.902;2024-03-07T11:07:22;50.67;;;27.27;;
20653;SDS011;21083;50.898;4.902;2024-03-07T11:09:50;48.25;;;27.25;;
20653;SDS011;21083;50.898;4.902;2024-03-07T11:12:21;49.58;;;26.67;;
20653;SDS011;21083;50.898;4.902;2024-03-07T11:14:50;44.20;;;25.35;;
20653;SDS011;21083;50.898;4.902;2024-03-07T11:17:20;47.38;;;25.35;;
20653;SDS011;21083;50.898;4.902;2024-03-07T11:19:48;48.90;;;26.73;;
20653;SDS011;21083;50.898;4.902;2024-03-07T11:22:28;46.88;;;25.23;;
20653;SDS011;21083;50.898;4.902;2024-03-07T11:25:01;48.60;;;26.60;;
20653;SDS011;21083;50.898;4.902;2024-03-07T11:27:32;43.08;;;25.58;;
20653;SDS011;21083;50.898;4.902;2024-03-07T11:30:04;46.30;;;27.67;;
20653;SDS011;21083;50.898;4.902;2024-03-07T11:32:35;49.05;;;26.63;;
20653;SDS011;21083;50.898;4.902;2024-03-07T11:35:06;49.35;;;27.88;;
20653;SDS011;21083;50.898;4.902;2024-03-07T11:37:39;52.20;;;27.67;;
20653;SDS011;21083;50.898;4.902;2024-03-07T11:40:11;50.45;;;26.85;;
20653;SDS011;21083;50.898;4.902;2024-03-07T11:42:48;49.25;;;27.80;;
20653;SDS011;21083;50.898;4.902;2024-03-07T11:45:16;50.00;;;27.38;;
20653;SDS011;21083;50.898;4.902;2024-03-07T11:47:52;50.38;;;26.42;;
20653;SDS011;21083;50.898;4.902;2024-03-07T11:50:25;51.42;;;26.65;;
20653;SDS011;21083;50.898;4.902;2024-03-07T11:52:52;51.78;;;26.00;;
20653;SDS011;21083;50.898;4.902;2024-03-07T11:55:20;46.15;;;26.15;;
20653;SDS011;21083;50.898;4.902;2024-03-07T11:57:48;45.92;;;25.13;;
20653;SDS011;21083;50.898;4.902;2024-03-07T12:00:17;44.05;;;26.30;;
20653;SDS011;21083;50.898;4.902;2024-03-07T12:02:45;48.50;;;26.27;;
20653;SDS011;21083;50.898;4.902;2024-03-07T12:05:15;40.78;;;23.73;;
20653;SDS011;21083;50.898;4.902;2024-03-07T12:07:44;49.17;;;26.40;;
20653;SDS011;21083;50.898;4.902;2024-03-07T12:10:12;43.50;;;25.25;;
20653;SDS011;21083;50.898;4.902;2024-03-07T12:12:39;47.33;;;26.60;;
20653;SDS011;21083;50.898;4.902;2024-03-07T12:15:08;45.13;;;25.50;;
20653;SDS011;21083;50.898;4.902;2024-03-07T12:17:44;40.92;;;24.70;;
20653;SDS011;21083;50.898;4.902;2024-03-07T12:20:16;43.58;;;26.13;;
20653;SDS011;21083;50.898;4.902;2024-03-07T12:22:56;44.38;;;25.17;;
20653;SDS011;21083;50.898;4.902;2024-03-07T12:25:23;45.80;;;25.90;;
20653;SDS011;21083;50.898;4.902;2024-03-07T12:28:00;43.92;;;24.10;;
20653;SDS011;21083;50.898;4.902;2024-03-07T12:30:31;46.30;;;23.48;;
20653;SDS011;21083;50.898;4.902;2024-03-07T12:33:00;42.78;;;23.38;;
20653;SDS011;21083;50.898;4.902;2024-03-07T12:35:31;38.97;;;22.70;;
20653;SDS011;21083;50.898;4.902;2024-03-07T12:37:58;44.42;;;23.95;;
20653;SDS011;21083;50.898;4.902;2024-03-07T12:40:25;38.35;;;22.55;;
20653;SDS011;21083;50.898;4.902;2024-03-07T12:42:54;42.78;;;24.23;;
20653;SDS011;21083;50.898;4.902;2024-03-07T12:45:22;42.45;;;22.67;;
20653;SDS011;21083;50.898;4.902;2024-03-07T12:47:51;42.92;;;23.65;;
20653;SDS011;21083;50.898;4.902;2024-03-07T12:50:20;41.53;;;21.30;;
20653;SDS011;21083;50.898;4.902;2024-03-07T12:52:49;40.88;;;21.77;;
20653;SDS011;21083;50.898;4.902;2024-03-07T12:55:17;37.53;;;21.52;;
20653;SDS011;21083;50.898;4.902;2024-03-07T12:57:46;38.65;;;20.65;;
20653;SDS011;21083;50.898;4.902;2024-03-07T13:00:15;33.53;;;20.13;;
20653;SDS011;21083;50.898;4.902;2024-03-07T13:02:45;33.58;;;19.23;;
20653;SDS011;21083;50.898;4.902;2024-03-07T13:05:13;34.42;;;18.50;;
20653;SDS011;21083;50.898;4.902;2024-03-07T13:07:45;35.42;;;18.58;;
20653;SDS011;21083;50.898;4.902;2024-03-07T13:10:15;33.33;;;18.88;;
20653;SDS011;21083;50.898;4.902;2024-03-07T13:12:44;28.85;;;18.05;;
20653;SDS011;21083;50.898;4.902;2024-03-07T13:15:14;32.08;;;18.23;;
20653;SDS011;21083;50.898;4.902;2024-03-07T13:17:41;31.33;;;19.00;;
20653;SDS011;21083;50.898;4.902;2024-03-07T13:20:10;31.13;;;18.88;;
20653;SDS011;21083;50.898;4.902;2024-03-07T13:22:38;30.35;;;18.25;;
20653;SDS011;21083;50.898;4.902;2024-03-07T13:25:07;29.65;;;19.92;;
20653;SDS011;21083;50.898;4.902;2024-03-07T13:27:41;31.52;;;18.95;;
20653;SDS011;21083;50.898;4.902;2024-03-07T13:30:11;35.88;;;19.80;;
20653;SDS011;21083;50.898;4.902;2024-03-07T13:32:49;31.25;;;17.88;;
20653;SDS011;21083;50.898;4.902;2024-03-07T13:35:20;30.95;;;17.80;;
20653;SDS011;21083;50.898;4.902;2024-03-07T13:37:48;32.45;;;18.90;;
20653;SDS011;21083;50.898;4.902;2024-03-07T13:40:16;28.58;;;18.08;;
20653;SDS011;21083;50.898;4.902;2024-03-07T13:42:50;32.65;;;17.42;;
20653;SDS011;21083;50.898;4.902;2024-03-07T13:45:19;29.80;;;18.50;;
20653;SDS011;21083;50.898;4.902;2024-03-07T13:47:48;33.95;;;17.95;;
20653;SDS011;21083;50.898;4.902;2024-03-07T13:50:16;29.27;;;17.33;;
20653;SDS011;21083;50.898;4.902;2024-03-07T13:52:44;30.30;;;18.33;;
20653;SDS011;21083;50.898;4.902;2024-03-07T13:55:32;25.58;;;16.90;;
20653;SDS011;21083;50.898;4.902;2024-03-07T13:58:03;28.98;;;16.90;;
20653;SDS011;21083;50.898;4.902;2024-03-07T14:00:41;29.30;;;18.20;;
20653;SDS011;21083;50.898;4.902;2024-03-07T14:06:20;30.80;;;18.20;;
20653;SDS011;21083;50.898;4.902;2024-03-07T14:08:55;29.77;;;18.40;;
20653;SDS011;21083;50.898;4.902;2024-03-07T14:12:03;29.42;;;18.23;;
20653;SDS011;21083;50.898;4.902;2024-03-07T14:18:11;28.85;;;17.67;;
20653;SDS011;21083;50.898;4.902;2024-03-07T14:27:18;28.73;;;17.48;;
20653;SDS011;21083;50.898;4.902;2024-03-07T14:29:54;29.52;;;18.48;;
20653;SDS011;21083;50.898;4.902;2024-03-07T14:32:39;30.90;;;18.67;;
20653;SDS011;21083;50.898;4.902;2024-03-07T14:35:10;33.20;;;18.73;;
20653;SDS011;21083;50.898;4.902;2024-03-07T14:37:45;30.55;;;18.60;;
20653;SDS011;21083;50.898;4.902;2024-03-07T14:40:19;29.83;;;17.92;;
20653;SDS011;21083;50.898;4.902;2024-03-07T14:42:50;30.25;;;18.08;;
20653;SDS011;21083;50.898;4.902;2024-03-07T14:45:23;33.40;;;17.90;;
20653;SDS011;21083;50.898;4.902;2024-03-07T14:48:10;34.33;;;17.70;;